Parkdale, Colorado
Current Conditions -  °F | °C
As of 12:15 AM on Saturday 20 Dec 2014 (Local Time) from K1V6 Reporting Station
Clear Clear  
Wind Chill: 28°   Ceiling: Unl
Heat Index: 37°   Visibility: 10mi
Dew Point: 16°   Wind: 16mph
Humidity: 41%   Direction: 290°WNW
Pressure: 30.03"   Gusts: NA
Location:  38.533°N, 105.389°W
Report Text: K1V6 200715Z AUTO 29014KT 10SM CLR 03/M09 A3003 RMK AO2
Loading
Personal Weather Stations






























Interactive Weather Map New forecast layout! Learn more

10-Day Weather Forecast

Advertisements
Track Severe Weather on mobile